createdAt,value
2023-04-03T00:00:39.416Z,94.20
2023-04-03T00:03:06.292Z,94.20
2023-04-03T00:05:33.113Z,94.20
2023-04-03T00:08:00.122Z,94.40
2023-04-03T00:10:27.215Z,94.40
2023-04-03T00:12:53.931Z,94.60
2023-04-03T00:15:20.924Z,94.90
2023-04-03T00:17:47.633Z,94.90
2023-04-03T00:20:14.355Z,95.40
2023-04-03T00:22:41.057Z,95.00
2023-04-03T00:25:08.697Z,95.10
2023-04-03T00:27:40.474Z,95.20
2023-04-03T00:30:09.590Z,95.20
2023-04-03T00:32:36.329Z,95.40
2023-04-03T00:35:03.535Z,95.40
2023-04-03T00:37:30.544Z,95.30
2023-04-03T00:39:57.268Z,95.30
2023-04-03T00:42:24.429Z,95.10
2023-04-03T00:44:53.936Z,95.10
2023-04-03T00:47:20.744Z,95.30
2023-04-03T00:49:47.662Z,95.40
2023-04-03T00:52:18.982Z,95.40
2023-04-03T00:54:47.533Z,95.50
2023-04-03T00:57:16.464Z,95.40
2023-04-03T00:59:52.874Z,95.20
2023-04-03T01:02:19.701Z,95.30
2023-04-03T01:04:48.284Z,95.30
2023-04-03T01:07:22.279Z,95.40
2023-04-03T01:09:51.332Z,95.70
2023-04-03T01:12:25.576Z,95.40
2023-04-03T01:14:56.337Z,95.50
2023-04-03T01:17:48.018Z,95.90
2023-04-03T01:20:33.226Z,96.00
2023-04-03T01:23:02.611Z,95.80
2023-04-03T01:25:29.610Z,95.50
2023-04-03T01:27:56.464Z,95.70
2023-04-03T01:30:31.337Z,95.80
2023-04-03T01:32:58.445Z,95.70
2023-04-03T01:35:25.290Z,95.70
2023-04-03T01:37:51.962Z,95.60
2023-04-03T01:40:19.024Z,95.40
2023-04-03T01:42:46.284Z,95.30
2023-04-03T01:45:13.217Z,95.20
2023-04-03T01:47:39.956Z,95.10
2023-04-03T01:50:07.016Z,94.90
2023-04-03T01:52:33.744Z,94.80
2023-04-03T01:55:00.408Z,95.00
2023-04-03T01:57:27.140Z,95.10
2023-04-03T01:59:53.855Z,95.00
2023-04-03T02:02:21.277Z,95.00
2023-04-03T02:04:48.158Z,95.20
2023-04-03T02:07:15.017Z,95.20
2023-04-03T02:09:41.757Z,95.40
2023-04-03T02:12:08.467Z,94.80
2023-04-03T02:14:35.519Z,94.90
2023-04-03T02:17:05.998Z,95.20
2023-04-03T02:19:32.870Z,95.10
2023-04-03T02:21:59.514Z,95.00
2023-04-03T02:24:26.210Z,95.00
2023-04-03T02:26:52.921Z,95.30
2023-04-03T02:29:19.758Z,95.40
2023-04-03T02:31:46.775Z,95.90
2023-04-03T02:34:13.534Z,96.10
2023-04-03T02:36:40.303Z,96.40
2023-04-03T02:39:07.053Z,96.40
2023-04-03T02:41:36.407Z,96.10
2023-04-03T02:44:04.510Z,96.30
2023-04-03T02:46:31.718Z,96.70
2023-04-03T02:48:58.553Z,96.30
2023-04-03T02:51:25.681Z,96.10
2023-04-03T02:53:52.361Z,96.00
2023-04-03T02:56:20.345Z,96.20
2023-04-03T02:58:47.583Z,96.50
2023-04-03T03:01:14.743Z,96.60
2023-04-03T03:03:41.468Z,96.70
2023-04-03T03:06:13.484Z,96.80
2023-04-03T03:08:40.905Z,96.80
2023-04-03T03:11:08.029Z,96.80
2023-04-03T03:13:34.875Z,96.90
2023-04-03T03:16:02.263Z,97.00
2023-04-03T03:18:29.748Z,97.10
2023-04-03T03:20:58.347Z,97.20
2023-04-03T03:23:27.085Z,97.50
2023-04-03T03:25:58.937Z,97.50
2023-04-03T03:28:25.944Z,97.40
2023-04-03T03:30:52.852Z,97.60
2023-04-03T03:33:20.402Z,97.40
2023-04-03T03:35:47.139Z,97.50
2023-04-03T03:38:13.987Z,97.30
2023-04-03T03:40:40.878Z,96.80
2023-04-03T03:43:07.854Z,96.80
2023-04-03T03:45:34.968Z,97.00
2023-04-03T03:48:04.077Z,96.90
2023-04-03T03:50:31.122Z,96.80
2023-04-03T03:52:57.864Z,96.80
2023-04-03T03:55:24.664Z,96.70
2023-04-03T03:57:51.481Z,97.00
2023-04-03T04:00:18.502Z,96.70
2023-04-03T04:02:45.705Z,96.50
2023-04-03T04:05:12.619Z,96.60
2023-04-03T04:07:39.344Z,96.50
2023-04-03T04:10:06.479Z,96.40
2023-04-03T04:12:33.229Z,96.70
2023-04-03T04:14:59.879Z,96.80
2023-04-03T04:17:26.619Z,96.70
2023-04-03T04:19:53.433Z,96.80
2023-04-03T04:22:20.159Z,96.90
2023-04-03T04:24:46.826Z,96.80
2023-04-03T04:27:13.493Z,96.90
2023-04-03T04:29:40.215Z,97.10
2023-04-03T04:32:07.041Z,96.80
2023-04-03T04:34:33.738Z,97.00
2023-04-03T04:37:00.463Z,97.10
2023-04-03T04:39:27.285Z,97.30
2023-04-03T04:41:53.910Z,97.50
2023-04-03T04:44:21.606Z,97.60
2023-04-03T04:46:48.348Z,97.50
2023-04-03T04:49:15.010Z,97.10
2023-04-03T04:51:51.568Z,97.00
2023-04-03T04:54:19.195Z,96.90
2023-04-03T04:56:45.990Z,96.90
2023-04-03T04:59:12.738Z,96.80
2023-04-03T05:01:39.475Z,97.10
2023-04-03T05:04:06.356Z,97.30
2023-04-03T05:06:33.807Z,97.50
2023-04-03T05:09:00.679Z,97.60
2023-04-03T05:11:27.821Z,97.50
2023-04-03T05:13:54.482Z,97.80
2023-04-03T05:16:21.278Z,97.90
2023-04-03T05:18:48.305Z,97.80
2023-04-03T05:21:15.261Z,97.80
2023-04-03T05:23:42.238Z,97.90
2023-04-03T05:26:08.922Z,98.00
2023-04-03T05:28:35.637Z,98.20
2023-04-03T05:31:02.348Z,98.10
2023-04-03T05:33:29.377Z,98.20
2023-04-03T05:35:56.505Z,98.00
2023-04-03T05:38:23.333Z,98.20
2023-04-03T05:40:50.200Z,98.10
2023-04-03T05:43:16.991Z,98.30
2023-04-03T05:45:46.328Z,98.20
2023-04-03T05:48:13.792Z,98.30
2023-04-03T05:50:42.594Z,98.50
2023-04-03T05:53:16.696Z,98.50
2023-04-03T05:55:43.338Z,98.70
2023-04-03T05:58:11.605Z,98.50
2023-04-03T06:00:38.772Z,98.50
2023-04-03T06:03:06.241Z,98.50
2023-04-03T06:05:33.278Z,98.50
2023-04-03T06:08:00.153Z,98.30
2023-04-03T06:10:27.195Z,98.30
2023-04-03T06:12:53.829Z,98.30
2023-04-03T06:15:21.320Z,98.20
2023-04-03T06:17:48.095Z,98.20
2023-04-03T06:20:14.953Z,98.20
2023-04-03T06:22:42.840Z,98.40
2023-04-03T06:25:11.066Z,98.40
2023-04-03T06:27:38.244Z,98.30
2023-04-03T06:30:07.384Z,98.20
2023-04-03T06:32:34.267Z,98.20
2023-04-03T06:35:01.451Z,98.00
2023-04-03T06:37:29.831Z,97.90
2023-04-03T06:39:57.009Z,98.00
2023-04-03T06:42:24.299Z,97.90
2023-04-03T06:44:51.246Z,97.90
2023-04-03T06:47:18.796Z,98.00
2023-04-03T06:49:46.160Z,97.90
2023-04-03T06:52:13.296Z,97.80
2023-04-03T06:54:41.495Z,97.90
2023-04-03T06:57:08.849Z,98.00
2023-04-03T06:59:37.534Z,98.10
2023-04-03T07:02:05.013Z,98.20
2023-04-03T07:04:31.900Z,98.30
2023-04-03T07:06:58.563Z,98.30
2023-04-03T07:09:25.621Z,98.40
2023-04-03T07:11:52.359Z,98.40
2023-04-03T07:14:19.237Z,98.50
2023-04-03T07:16:45.913Z,98.60
2023-04-03T07:19:12.785Z,98.50
2023-04-03T07:21:39.788Z,98.60
2023-04-03T07:24:07.479Z,98.60
2023-04-03T07:26:36.271Z,98.50
2023-04-03T07:29:03.281Z,98.50
2023-04-03T07:31:29.970Z,98.50
2023-04-03T07:33:56.677Z,98.50
2023-04-03T07:36:24.239Z,98.30
2023-04-03T07:38:50.954Z,98.20
2023-04-03T07:41:19.709Z,98.00
2023-04-03T07:43:47.468Z,98.10
2023-04-03T07:46:14.317Z,97.90
2023-04-03T07:48:41.095Z,97.90
2023-04-03T07:51:07.942Z,97.80
2023-04-03T07:53:35.007Z,97.70
2023-04-03T07:56:03.678Z,97.70
2023-04-03T07:58:30.902Z,97.50
2023-04-03T08:00:58.264Z,97.50
2023-04-03T08:03:25.470Z,97.50
2023-04-03T08:05:52.353Z,97.30
2023-04-03T08:08:22.298Z,97.30
2023-04-03T08:10:53.715Z,97.10
2023-04-03T08:13:21.076Z,96.90
2023-04-03T08:15:48.247Z,96.80
2023-04-03T08:18:16.220Z,96.80
2023-04-03T08:20:43.478Z,96.60
2023-04-03T08:23:11.413Z,96.50
2023-04-03T08:25:42.938Z,96.30
2023-04-03T08:28:12.038Z,95.90
2023-04-03T08:30:43.308Z,95.80
2023-04-03T08:33:10.670Z,95.40
2023-04-03T08:35:42.495Z,95.60
2023-04-03T08:38:11.117Z,95.40
2023-04-03T08:40:38.538Z,95.00
2023-04-03T08:43:27.754Z,94.80
2023-04-03T08:46:01.972Z,94.30
2023-04-03T08:48:34.033Z,93.80
2023-04-03T08:51:12.179Z,93.70
2023-04-03T08:53:43.324Z,92.90
2023-04-03T08:56:11.321Z,92.60
2023-04-03T08:58:48.752Z,92.50
2023-04-03T09:01:30.305Z,91.90
2023-04-03T09:03:56.998Z,91.30
2023-04-03T09:06:30.164Z,90.80
2023-04-03T09:09:27.750Z,90.70
2023-04-03T09:12:13.330Z,90.80
2023-04-03T09:14:52.314Z,90.90
2023-04-03T09:17:47.363Z,90.60
2023-04-03T09:20:54.148Z,90.50
2023-04-03T09:23:33.406Z,90.50
2023-04-03T09:26:19.165Z,90.60
2023-04-03T09:28:50.598Z,90.10
2023-04-03T09:31:20.450Z,90.10
2023-04-03T09:33:50.593Z,88.30
2023-04-03T09:36:47.790Z,87.80
2023-04-03T09:39:26.412Z,87.80
2023-04-03T09:42:05.134Z,86.30
2023-04-03T09:44:39.966Z,86.00
2023-04-03T09:47:27.182Z,86.40
2023-04-03T09:50:21.786Z,85.80
2023-04-03T09:52:52.770Z,84.10
2023-04-03T09:55:30.791Z,84.90
2023-04-03T09:57:59.207Z,84.60
2023-04-03T10:00:31.957Z,84.30
2023-04-03T10:02:59.146Z,83.20
2023-04-03T10:05:42.183Z,82.50
2023-04-03T10:08:14.854Z,81.80
2023-04-03T10:10:44.141Z,81.80
2023-04-03T10:13:22.132Z,82.40
2023-04-03T10:16:02.643Z,81.20
2023-04-03T10:18:45.600Z,80.30
2023-04-03T10:21:51.205Z,79.50
2023-04-03T10:24:45.511Z,79.70
2023-04-03T10:27:19.458Z,80.80
2023-04-03T10:29:59.792Z,80.50
2023-04-03T10:32:54.316Z,79.70
2023-04-03T10:36:00.711Z,79.10
2023-04-03T10:38:55.097Z,77.80
2023-04-03T10:41:22.011Z,78.30
2023-04-03T10:43:59.820Z,78.70
2023-04-03T10:47:11.312Z,78.80
2023-04-03T10:49:59.317Z,77.70
2023-04-03T10:52:41.364Z,77.80
2023-04-03T10:55:14.292Z,77.30
2023-04-03T10:57:41.924Z,77.90
2023-04-03T11:00:19.475Z,78.00
2023-04-03T11:02:52.419Z,77.80
2023-04-03T11:05:37.997Z,77.30
2023-04-03T11:08:14.482Z,76.30
2023-04-03T11:10:46.343Z,76.70
2023-04-03T11:13:18.155Z,76.70
2023-04-03T11:15:46.829Z,75.90
2023-04-03T11:18:16.225Z,74.30
2023-04-03T11:20:52.245Z,75.50
2023-04-03T11:23:26.767Z,75.20
2023-04-03T11:25:57.554Z,75.60
2023-04-03T11:28:24.201Z,75.00
2023-04-03T11:31:12.587Z,75.60
2023-04-03T11:33:50.056Z,73.60
2023-04-03T11:36:29.594Z,73.70
2023-04-03T11:39:27.676Z,72.30
2023-04-03T11:42:06.879Z,73.20
2023-04-03T11:44:39.664Z,73.20
2023-04-03T11:47:09.258Z,73.60
2023-04-03T11:49:54.091Z,72.90
2023-04-03T11:52:42.305Z,72.80
2023-04-03T11:55:22.535Z,73.00
2023-04-03T11:58:01.903Z,72.20
2023-04-03T12:00:53.748Z,72.30
2023-04-03T12:03:30.357Z,72.10
2023-04-03T12:06:07.024Z,72.40
2023-04-03T12:08:33.815Z,71.80
2023-04-03T12:11:09.547Z,72.40
2023-04-03T12:13:56.637Z,72.40
2023-04-03T12:16:38.467Z,72.30
2023-04-03T12:19:39.311Z,71.90
2023-04-03T12:22:13.145Z,71.80
2023-04-03T12:24:47.903Z,71.40
2023-04-03T12:27:34.097Z,71.20
2023-04-03T12:30:36.261Z,71.90
2023-04-03T12:33:35.272Z,71.20
2023-04-03T12:36:13.916Z,71.00
2023-04-03T12:39:02.081Z,70.10
2023-04-03T12:41:39.328Z,70.50
2023-04-03T12:44:33.237Z,69.60
2023-04-03T12:47:03.094Z,69.10
2023-04-03T12:49:29.769Z,70.00
2023-04-03T12:51:56.972Z,70.10
2023-04-03T12:54:47.293Z,69.80
2023-04-03T12:57:28.696Z,69.30
2023-04-03T12:59:55.962Z,69.60
2023-04-03T13:02:28.384Z,69.50
2023-04-03T13:04:59.083Z,69.40
2023-04-03T13:07:29.586Z,68.10
2023-04-03T13:09:58.752Z,68.10
2023-04-03T13:12:25.421Z,67.60
2023-04-03T13:15:02.384Z,68.00
2023-04-03T13:17:29.275Z,68.30
2023-04-03T13:19:56.057Z,68.10
2023-04-03T13:22:34.981Z,68.00
2023-04-03T13:25:05.346Z,67.90
2023-04-03T13:27:33.080Z,67.40
2023-04-03T13:30:02.566Z,67.90
2023-04-03T13:32:31.373Z,67.40
2023-04-03T13:35:05.254Z,67.10
2023-04-03T13:37:38.787Z,68.00
2023-04-03T13:43:07.725Z,66.60
2023-04-03T13:45:36.078Z,66.70
2023-04-03T13:48:23.932Z,66.50
2023-04-03T13:50:55.391Z,66.00
2023-04-03T13:53:22.460Z,66.90
2023-04-03T13:56:21.914Z,67.20
2023-04-03T13:59:04.518Z,67.40
2023-04-03T14:02:02.961Z,66.40
2023-04-03T14:04:47.076Z,65.80
2023-04-03T14:07:16.893Z,66.10
2023-04-03T14:09:44.095Z,66.30
2023-04-03T14:12:30.813Z,66.70
2023-04-03T14:15:00.561Z,66.70
2023-04-03T14:17:28.728Z,66.70
2023-04-03T14:19:57.338Z,66.40
2023-04-03T14:22:33.151Z,66.10
2023-04-03T14:25:00.535Z,64.50
2023-04-03T14:27:42.480Z,65.20
2023-04-03T14:30:15.535Z,65.40
2023-04-03T14:32:43.017Z,65.50
2023-04-03T14:35:09.847Z,65.10
2023-04-03T14:37:36.710Z,64.40
2023-04-03T14:40:05.665Z,65.40
2023-04-03T14:42:36.410Z,66.00
2023-04-03T14:45:07.207Z,65.80
2023-04-03T14:47:34.386Z,65.50
2023-04-03T14:50:02.836Z,65.60
2023-04-03T14:52:32.855Z,65.90
2023-04-03T14:55:01.438Z,65.60
2023-04-03T14:57:29.774Z,65.00
2023-04-03T14:59:56.536Z,65.30
2023-04-03T15:02:29.137Z,65.80
2023-04-03T15:04:56.973Z,66.30
2023-04-03T15:07:26.147Z,66.50
2023-04-03T15:09:52.868Z,65.30
2023-04-03T15:12:19.649Z,65.10
2023-04-03T15:14:51.898Z,64.90
2023-04-03T15:17:24.927Z,64.70
2023-04-03T15:19:51.626Z,64.20
2023-04-03T15:22:20.628Z,64.00
2023-04-03T15:24:47.433Z,64.30
2023-04-03T15:27:16.284Z,64.20
2023-04-03T15:29:44.792Z,64.70
2023-04-03T15:32:12.643Z,65.00
2023-04-03T15:34:40.257Z,65.50
2023-04-03T15:37:07.130Z,65.60
2023-04-03T15:39:33.987Z,64.40
2023-04-03T15:42:06.801Z,64.90
2023-04-03T15:44:34.824Z,65.10
2023-04-03T15:47:02.664Z,65.10
2023-04-03T15:49:29.594Z,64.50
2023-04-03T15:51:56.388Z,64.80
2023-04-03T15:54:25.141Z,64.90
2023-04-03T15:56:52.476Z,64.90
2023-04-03T15:59:19.306Z,64.40
2023-04-03T16:01:46.367Z,64.00
2023-04-03T16:04:14.787Z,63.40
2023-04-03T16:06:42.570Z,64.40
2023-04-03T16:09:09.722Z,65.20
2023-04-03T16:11:38.225Z,65.50
2023-04-03T16:14:04.963Z,65.70
2023-04-03T16:16:31.771Z,66.20
2023-04-03T16:18:58.787Z,66.90
2023-04-03T16:21:25.960Z,67.60
2023-04-03T16:23:52.700Z,68.10
2023-04-03T16:26:19.522Z,68.40
2023-04-03T16:28:46.213Z,68.60
2023-04-03T16:31:13.126Z,69.30
2023-04-03T16:33:39.913Z,69.90
2023-04-03T16:36:07.129Z,70.30
2023-04-03T16:38:33.995Z,70.30
2023-04-03T16:41:05.260Z,70.80
2023-04-03T16:43:33.403Z,71.30
2023-04-03T16:46:00.551Z,71.40
2023-04-03T16:48:27.190Z,71.50
2023-04-03T16:50:54.411Z,71.80
2023-04-03T16:53:25.702Z,73.20
2023-04-03T16:55:52.596Z,72.70
2023-04-03T16:58:21.083Z,73.10
2023-04-03T17:00:49.091Z,73.50
2023-04-03T17:03:15.782Z,73.70
2023-04-03T17:05:42.805Z,73.80
2023-04-03T17:08:09.547Z,73.60
2023-04-03T17:10:36.437Z,73.60
2023-04-03T17:13:03.259Z,73.80
2023-04-03T17:15:30.044Z,73.80
2023-04-03T17:17:57.050Z,74.10
2023-04-03T17:20:23.919Z,75.10
2023-04-03T17:22:50.749Z,74.70
2023-04-03T17:25:17.648Z,74.80
2023-04-03T17:27:44.286Z,74.90
2023-04-03T17:30:11.545Z,75.20
2023-04-03T17:32:38.598Z,75.50
2023-04-03T17:35:05.947Z,75.80
2023-04-03T17:37:32.585Z,75.90
2023-04-03T17:39:59.232Z,76.10
2023-04-03T17:42:26.075Z,76.40
2023-04-03T17:44:52.880Z,76.60
2023-04-03T17:47:19.692Z,76.80
2023-04-03T17:49:46.350Z,77.00
2023-04-03T17:52:13.030Z,77.30
2023-04-03T17:54:39.706Z,77.60
2023-04-03T17:57:06.728Z,78.10
2023-04-03T17:59:33.616Z,78.20
2023-04-03T18:02:00.604Z,78.30
2023-04-03T18:04:29.043Z,78.50
2023-04-03T18:06:56.112Z,78.60
2023-04-03T18:09:30.152Z,78.80
2023-04-03T18:11:58.011Z,79.10
2023-04-03T18:14:28.008Z,78.90
2023-04-03T18:16:57.485Z,78.80
2023-04-03T18:19:25.719Z,78.80
2023-04-03T18:21:57.066Z,78.90
2023-04-03T18:24:25.252Z,79.00
2023-04-03T18:26:58.418Z,79.10
2023-04-03T18:29:26.098Z,79.30
2023-04-03T18:31:55.763Z,79.50
2023-04-03T18:34:22.590Z,79.70
2023-04-03T18:36:49.374Z,79.90
2023-04-03T18:39:16.215Z,80.20
2023-04-03T18:41:43.557Z,80.50
2023-04-03T18:44:15.674Z,80.90
2023-04-03T18:46:42.591Z,81.20
2023-04-03T18:49:11.403Z,81.50
2023-04-03T18:51:39.586Z,82.00
2023-04-03T18:54:07.184Z,82.50
2023-04-03T18:56:33.850Z,82.50
2023-04-03T18:59:00.642Z,82.90
2023-04-03T19:01:27.510Z,83.20
2023-04-03T19:03:54.258Z,83.70
2023-04-03T19:06:21.090Z,84.10
2023-04-03T19:08:50.007Z,84.30
2023-04-03T19:11:16.757Z,84.50
2023-04-03T19:13:47.067Z,84.80
2023-04-03T19:16:30.187Z,85.10
2023-04-03T19:18:57.050Z,85.10
2023-04-03T19:21:23.738Z,85.30
2023-04-03T19:23:50.871Z,85.40
2023-04-03T19:26:17.563Z,85.90
2023-04-03T19:28:44.620Z,86.00
2023-04-03T19:31:16.714Z,86.20
2023-04-03T19:33:44.691Z,86.60
2023-04-03T19:36:11.938Z,86.70
2023-04-03T19:38:39.350Z,86.40
2023-04-03T19:41:08.945Z,86.60
2023-04-03T19:43:35.925Z,86.50
2023-04-03T19:46:03.113Z,86.80
2023-04-03T19:48:29.847Z,86.70
2023-04-03T19:50:56.570Z,86.60
2023-04-03T19:53:28.913Z,87.00
2023-04-03T19:55:57.323Z,86.80
2023-04-03T19:58:27.464Z,86.90
2023-04-03T20:00:55.321Z,87.00
2023-04-03T20:03:23.720Z,87.10
2023-04-03T20:05:51.088Z,87.70
2023-04-03T20:08:18.343Z,87.70
2023-04-03T20:10:45.767Z,88.00
2023-04-03T20:13:13.934Z,88.20
2023-04-03T20:15:42.504Z,88.50
2023-04-03T20:18:12.556Z,88.60
2023-04-03T20:20:42.038Z,88.70
2023-04-03T20:23:12.997Z,88.80
2023-04-03T20:25:50.712Z,89.60
2023-04-03T20:28:22.605Z,89.30
2023-04-03T20:30:51.377Z,89.30
2023-04-03T20:33:19.124Z,89.70
2023-04-03T20:35:47.073Z,90.00
2023-04-03T20:38:14.417Z,89.90
2023-04-03T20:40:41.285Z,89.50
2023-04-03T20:43:08.303Z,89.50
2023-04-03T20:45:35.789Z,89.90
2023-04-03T20:48:06.064Z,89.60
2023-04-03T20:50:34.013Z,90.00
2023-04-03T20:53:02.094Z,90.00
2023-04-03T20:55:29.911Z,90.30
2023-04-03T20:58:01.061Z,90.00
2023-04-03T21:00:29.583Z,90.20
2023-04-03T21:02:57.950Z,90.30
2023-04-03T21:05:26.267Z,90.40
2023-04-03T21:08:32.107Z,90.60
2023-04-03T21:11:36.433Z,90.90
2023-04-03T21:14:41.533Z,90.60
2023-04-03T21:17:08.101Z,90.80
2023-04-03T21:19:35.444Z,91.10
2023-04-03T21:22:02.443Z,91.20
2023-04-03T21:24:29.542Z,91.40
2023-04-03T21:26:57.392Z,91.80
2023-04-03T21:29:24.053Z,91.80
2023-04-03T21:31:59.151Z,91.80
2023-04-03T21:34:30.438Z,91.80
2023-04-03T21:37:08.670Z,91.40
2023-04-03T21:39:35.405Z,91.30
2023-04-03T21:42:02.067Z,91.30
2023-04-03T21:44:28.930Z,91.40
2023-04-03T21:46:55.899Z,91.40
2023-04-03T21:49:24.081Z,91.40
2023-04-03T21:51:51.899Z,91.40
2023-04-03T21:54:19.180Z,91.50
2023-04-03T21:56:48.037Z,91.70
2023-04-03T21:59:15.938Z,91.60
2023-04-03T22:01:43.079Z,91.70
2023-04-03T22:04:09.873Z,91.60
2023-04-03T22:06:37.930Z,91.60
2023-04-03T22:09:04.725Z,91.60
2023-04-03T22:11:31.574Z,91.80
2023-04-03T22:13:58.236Z,92.20
2023-04-03T22:16:25.136Z,92.40
2023-04-03T22:18:52.962Z,92.80
2023-04-03T22:21:21.015Z,92.60
2023-04-03T22:23:47.718Z,92.30
2023-04-03T22:26:14.456Z,92.20
2023-04-03T22:28:46.151Z,92.20
2023-04-03T22:31:14.390Z,92.30
2023-04-03T22:33:42.485Z,92.30
2023-04-03T22:36:11.057Z,92.30
2023-04-03T22:38:39.024Z,92.50
2023-04-03T22:41:07.125Z,92.90
2023-04-03T22:43:36.475Z,93.00
2023-04-03T22:46:05.311Z,93.30
2023-04-03T22:48:32.199Z,93.30
2023-04-03T22:51:01.008Z,93.60
2023-04-03T22:53:28.679Z,93.50
2023-04-03T22:55:59.981Z,93.30
2023-04-03T22:58:27.539Z,93.30
2023-04-03T23:01:08.392Z,93.10
2023-04-03T23:03:36.285Z,93.20
2023-04-03T23:06:04.222Z,93.40
2023-04-03T23:08:32.610Z,93.70
2023-04-03T23:10:59.499Z,94.00
2023-04-03T23:13:26.987Z,93.90
2023-04-03T23:16:04.189Z,93.80
2023-04-03T23:18:31.954Z,93.50
2023-04-03T23:20:59.757Z,93.30
2023-04-03T23:23:27.121Z,93.20
2023-04-03T23:25:59.321Z,93.30
2023-04-03T23:28:27.187Z,93.60
2023-04-03T23:31:02.324Z,93.70
2023-04-03T23:33:30.747Z,93.60
2023-04-03T23:35:58.508Z,93.70
2023-04-03T23:38:25.784Z,94.00
2023-04-03T23:40:52.580Z,93.80
2023-04-03T23:43:19.391Z,93.90
2023-04-03T23:45:46.119Z,94.20
2023-04-03T23:48:13.130Z,94.80
2023-04-03T23:50:40.099Z,94.80
2023-04-03T23:53:07.174Z,94.80
2023-04-03T23:55:34.041Z,95.00
2023-04-03T23:58:00.730Z,95.10
